Time;durP1;ratioP1;P1;durP2;ratioP2;P2;SDS_P1;SDS_P2;PMS_P1;PMS_P2;Temp;Humidity;BMP_temperature;BMP_pressure;BME280_temperature;BME280_humidity;BME280_pressure;Samples;Min_cycle;Max_cycle;Signal;HPM_P1;HPM_P2
2021/01/10 10:42:11;;;;;;;62.63;30.37;;;2.30;99.90;;;;;;5089279;27;20477;-63
2021/01/10 10:44:37;;;;;;;58.77;33.17;;;2.40;99.90;;;;;;5088793;28;20576;-63
2021/01/10 10:47:02;;;;;;;56.27;33.10;;;2.60;99.90;;;;;;5106741;28;20199;-63
2021/01/10 10:49:30;;;;;;;59.57;33.00;;;2.80;99.90;;;;;;5109207;28;20702;-63
2021/01/10 10:51:56;;;;;;;57.17;31.07;;;3.00;99.90;;;;;;5092302;28;20223;-63
2021/01/10 10:56:50;;;;;;;57.90;30.60;;;3.30;99.90;;;;;;5032143;28;20290;-62
2021/01/10 10:59:16;;;;;;;52.77;29.93;;;3.30;99.90;;;;;;5028388;28;20195;-63
2021/01/10 11:01:44;;;;;;;56.50;29.83;;;3.40;99.90;;;;;;5041719;28;20241;-62
2021/01/10 11:04:10;;;;;;;49.97;30.53;;;3.40;99.90;;;;;;5048444;28;20602;-63
2021/01/10 11:06:36;;;;;;;58.37;29.67;;;3.40;99.90;;;;;;5036049;28;20176;-63
2021/01/10 11:09:05;;;;;;;50.50;30.47;;;3.50;99.90;;;;;;5026947;28;20186;-63
2021/01/10 11:11:35;;;;;;;50.17;29.63;;;3.60;99.90;;;;;;5038965;28;20262;-64
2021/01/10 11:14:01;;;;;;;45.67;27.67;;;3.70;99.90;;;;;;5048498;28;20194;-64
2021/01/10 11:16:31;;;;;;;48.07;27.00;;;3.80;99.90;;;;;;5020237;28;20673;-63
2021/01/10 11:18:57;;;;;;;48.30;27.53;;;3.70;99.90;;;;;;5028177;28;20203;-64
2021/01/10 11:21:28;;;;;;;51.90;28.73;;;3.60;99.90;;;;;;5036464;28;20199;-64
2021/01/10 11:23:53;;;;;;;51.33;28.30;;;3.50;99.90;;;;;;5030285;28;20329;-64
2021/01/10 11:26:19;;;;;;;49.23;28.10;;;3.60;99.90;;;;;;5040996;28;20262;-63
2021/01/10 11:28:44;;;;;;;51.87;29.20;;;3.70;99.90;;;;;;5028317;28;20171;-64
2021/01/10 11:31:10;;;;;;;47.73;28.50;;;3.80;99.90;;;;;;5033293;28;20205;-63
2021/01/10 11:33:36;;;;;;;45.47;26.67;;;4.00;99.90;;;;;;5048104;28;20273;-64
2021/01/10 11:36:04;;;;;;;43.03;28.20;;;4.10;99.90;;;;;;5044233;28;20176;-63
2021/01/10 11:38:29;;;;;;;44.37;26.53;;;4.20;99.90;;;;;;5027861;28;20254;-63
2021/01/10 11:40:55;;;;;;;47.83;27.70;;;4.10;99.90;;;;;;5030530;28;20298;-62
2021/01/10 11:43:20;;;;;;;48.33;28.37;;;4.10;99.90;;;;;;5046229;28;20210;-63
2021/01/10 11:45:46;;;;;;;47.50;25.77;;;4.20;99.90;;;;;;5046908;28;20516;-63
2021/01/10 11:48:11;;;;;;;40.07;24.10;;;4.30;99.90;;;;;;5027544;28;20180;-63
2021/01/10 11:50:40;;;;;;;46.53;25.10;;;4.30;99.90;;;;;;5027601;28;20537;-63
2021/01/10 11:53:05;;;;;;;44.67;23.67;;;4.30;99.90;;;;;;5017064;28;20200;-64
2021/01/10 11:55:34;;;;;;;39.80;22.80;;;4.30;99.90;;;;;;5014245;28;20286;-64
2021/01/10 11:58:00;;;;;;;40.20;21.63;;;4.30;99.90;;;;;;5032189;28;20188;-64
2021/01/10 12:00:26;;;;;;;38.03;20.13;;;4.30;99.90;;;;;;5034042;28;20694;-64
2021/01/10 12:02:51;;;;;;;46.00;21.90;;;4.30;99.90;;;;;;5017523;28;20200;-64
2021/01/10 12:05:17;;;;;;;34.57;21.00;;;4.40;99.90;;;;;;5016273;28;20211;-64
2021/01/10 12:07:42;;;;;;;36.03;21.37;;;4.40;99.90;;;;;;5028638;28;20183;-64
2021/01/10 12:10:08;;;;;;;36.10;20.43;;;4.50;99.90;;;;;;5034167;28;20172;-64
2021/01/10 12:12:34;;;;;;;36.87;20.07;;;4.60;99.90;;;;;;5014892;28;20211;-64
2021/01/10 12:14:59;;;;;;;34.77;17.83;;;4.70;99.90;;;;;;5013908;28;20187;-64
2021/01/10 12:17:25;;;;;;;35.73;19.53;;;4.80;99.90;;;;;;5030093;28;20183;-63
2021/01/10 12:19:50;;;;;;;31.17;18.50;;;4.80;99.90;;;;;;5034520;28;20168;-64
2021/01/10 12:22:16;;;;;;;30.40;18.67;;;4.90;99.90;;;;;;5018868;28;20207;-64
2021/01/10 12:24:42;;;;;;;38.47;23.47;;;5.00;99.90;;;;;;5013782;28;20186;-64
2021/01/10 12:27:07;;;;;;;33.00;20.70;;;5.10;99.90;;;;;;5026578;28;20179;-64
2021/01/10 12:29:33;;;;;;;35.10;18.97;;;5.20;99.90;;;;;;5033557;28;20619;-64
2021/01/10 12:31:58;;;;;;;30.77;17.60;;;5.20;99.90;;;;;;5021898;28;20184;-64
2021/01/10 12:34:25;;;;;;;28.87;16.40;;;5.30;99.90;;;;;;5015196;28;20230;-64
2021/01/10 12:36:51;;;;;;;30.60;17.47;;;5.20;99.90;;;;;;5023800;28;20179;-64
2021/01/10 12:39:16;;;;;;;34.20;17.03;;;5.30;99.90;;;;;;5033157;28;20211;-64
2021/01/10 12:41:42;;;;;;;28.43;15.20;;;5.40;99.90;;;;;;5024494;28;20624;-65
2021/01/10 12:44:08;;;;;;;25.60;16.63;;;5.50;99.90;;;;;;5013740;28;20723;-64
2021/01/10 12:46:33;;;;;;;30.60;16.87;;;5.60;99.90;;;;;;5019515;28;20557;-65
2021/01/10 12:48:59;;;;;;;32.87;17.80;;;5.80;99.90;;;;;;5032946;28;20187;-64
2021/01/10 12:51:25;;;;;;;33.10;18.53;;;5.90;99.90;;;;;;5028161;28;20180;-64
2021/01/10 12:53:50;;;;;;;31.87;16.53;;;5.90;99.90;;;;;;5013228;28;20224;-64
2021/01/10 12:56:16;;;;;;;26.97;14.87;;;5.90;99.90;;;;;;5014387;28;20180;-65
2021/01/10 12:58:41;;;;;;;26.03;15.97;;;5.90;99.90;;;;;;5030499;28;20542;-65
2021/01/10 13:01:07;;;;;;;23.83;16.30;;;5.80;99.90;;;;;;5031512;28;20203;-64
2021/01/10 13:03:33;;;;;;;39.00;17.50;;;5.50;99.90;;;;;;5011984;28;20626;-64
2021/01/10 13:05:59;;;;;;;31.90;15.23;;;5.30;99.90;;;;;;5013290;28;20172;-64
2021/01/10 13:08:24;;;;;;;27.20;15.57;;;5.10;99.90;;;;;;5032056;28;20180;-64
2021/01/10 13:10:50;;;;;;;25.90;15.20;;;4.80;99.90;;;;;;5032985;28;20175;-64
2021/01/10 13:13:15;;;;;;;29.60;16.17;;;4.50;99.90;;;;;;5014756;28;20204;-64
2021/01/10 13:15:41;;;;;;;30.47;16.23;;;4.30;99.90;;;;;;5012803;28;20189;-64
2021/01/10 13:18:07;;;;;;;30.47;16.50;;;4.10;99.90;;;;;;5028213;28;20187;-64
2021/01/10 13:20:33;;;;;;;35.03;18.70;;;4.00;99.90;;;;;;5032242;28;20253;-63
2021/01/10 13:23:00;;;;;;;35.40;19.47;;;4.20;99.90;;;;;;5018184;28;20566;-64
2021/01/10 13:25:26;;;;;;;31.80;16.57;;;4.50;99.90;;;;;;5012696;28;20179;-64
2021/01/10 13:27:52;;;;;;;27.43;15.97;;;4.60;99.90;;;;;;5024976;28;20175;-64
2021/01/10 13:30:18;;;;;;;25.33;15.23;;;5.00;99.90;;;;;;5032467;28;20233;-64
2021/01/10 13:32:44;;;;;;;26.33;14.27;;;5.20;99.90;;;;;;5020889;28;20210;-64
2021/01/10 13:35:10;;;;;;;26.23;14.90;;;5.10;99.90;;;;;;5012680;28;20176;-64
2021/01/10 13:37:35;;;;;;;33.40;14.07;;;5.00;99.90;;;;;;5021726;28;20183;-64
2021/01/10 13:40:01;;;;;;;27.77;15.00;;;4.90;99.90;;;;;;5032771;28;20230;-63
2021/01/10 13:42:27;;;;;;;23.30;13.37;;;4.90;99.90;;;;;;5023900;28;20187;-64
2021/01/10 13:44:52;;;;;;;29.10;13.93;;;4.80;99.90;;;;;;5012844;28;20168;-64
2021/01/10 13:47:18;;;;;;;24.77;13.57;;;4.80;99.90;;;;;;5017575;28;20179;-64
2021/01/10 13:49:43;;;;;;;30.30;14.53;;;4.80;99.90;;;;;;5032009;28;20556;-64
2021/01/10 13:52:09;;;;;;;32.30;15.93;;;4.70;99.90;;;;;;5027767;28;20264;-64
2021/01/10 13:54:35;;;;;;;25.40;13.67;;;4.60;99.90;;;;;;5012188;28;20184;-64
2021/01/10 13:57:01;;;;;;;25.87;14.10;;;4.40;99.90;;;;;;5014329;28;20173;-65
2021/01/10 13:59:27;;;;;;;29.47;14.40;;;4.30;99.90;;;;;;5031631;28;20176;-65
2021/01/10 14:01:53;;;;;;;29.40;15.17;;;4.30;99.90;;;;;;5030672;28;20561;-65
2021/01/10 14:04:20;;;;;;;33.67;15.50;;;4.30;99.90;;;;;;5012038;28;20199;-64
2021/01/10 14:06:46;;;;;;;28.37;15.70;;;4.30;99.90;;;;;;5011809;28;20226;-62
2021/01/10 14:09:12;;;;;;;31.00;15.77;;;4.30;99.90;;;;;;5030821;28;20541;-65
2021/01/10 14:11:41;;;;;;;26.97;14.70;;;4.40;99.90;;;;;;5018113;28;20183;-65
2021/01/10 14:14:06;;;;;;;31.13;14.57;;;4.50;99.90;;;;;;5011865;28;20192;-64
2021/01/10 14:16:34;;;;;;;27.17;13.83;;;4.70;99.90;;;;;;5021233;28;20202;-64
2021/01/10 14:19:00;;;;;;;25.83;13.83;;;4.80;99.90;;;;;;5008587;28;20618;-64
2021/01/10 14:21:34;;;;;;;31.40;17.57;;;4.80;99.90;;;;;;4992487;28;20318;-65
2021/01/10 14:24:06;;;;;;;24.83;13.53;;;4.90;99.90;;;;;;5008064;28;20677;-65
2021/01/10 14:26:45;;;;;;;32.10;15.70;;;4.90;99.90;;;;;;5018043;28;20581;-64
2021/01/10 14:29:18;;;;;;;29.97;16.40;;;4.90;99.90;;;;;;5027484;28;20181;-65
2021/01/10 14:31:47;;;;;;;24.67;13.67;;;4.90;99.90;;;;;;5015716;28;20223;-64
2021/01/10 14:34:15;;;;;;;22.33;13.70;;;5.00;99.90;;;;;;5005778;28;20200;-64
2021/01/10 14:36:41;;;;;;;26.03;13.63;;;4.90;99.90;;;;;;5018581;28;20210;-64
2021/01/10 14:39:07;;;;;;;28.10;15.40;;;4.80;99.90;;;;;;5027693;28;20241;-65
2021/01/10 14:41:34;;;;;;;29.07;14.40;;;4.80;99.90;;;;;;5018012;28;20302;-65
2021/01/10 14:44:01;;;;;;;23.93;13.93;;;4.70;99.90;;;;;;5008558;28;20673;-65
2021/01/10 14:46:27;;;;;;;26.67;14.97;;;4.60;99.90;;;;;;5015812;28;20241;-65
2021/01/10 14:48:53;;;;;;;28.13;15.33;;;4.60;99.90;;;;;;5028235;28;20820;-65
2021/01/10 14:51:20;;;;;;;36.23;17.73;;;4.40;99.90;;;;;;5021470;28;20199;-64
2021/01/10 14:53:52;;;;;;;32.27;16.27;;;4.30;99.90;;;;;;5007824;28;20211;-65
2021/01/10 14:56:19;;;;;;;40.03;20.53;;;4.30;99.90;;;;;;5021631;28;20275;-64
2021/01/10 14:58:45;;;;;;;38.83;18.63;;;4.20;99.90;;;;;;5027271;28;20207;-65
2021/01/10 15:01:16;;;;;;;37.83;18.70;;;4.10;99.90;;;;;;5015546;28;21016;-66
2021/01/10 15:03:46;;;;;;;33.30;17.20;;;4.00;99.90;;;;;;5015014;28;20187;-65
2021/01/10 15:06:13;;;;;;;37.13;18.80;;;3.90;99.90;;;;;;5027568;28;20664;-64
2021/01/10 15:08:43;;;;;;;31.20;19.27;;;3.90;99.90;;;;;;5020295;28;20181;-65
2021/01/10 15:11:23;;;;;;;34.60;18.20;;;3.80;99.90;;;;;;5008275;28;20177;-65
2021/01/10 15:13:49;;;;;;;36.10;16.87;;;3.70;99.90;;;;;;5015150;28;20600;-65
2021/01/10 15:16:15;;;;;;;38.70;19.13;;;3.80;99.90;;;;;;5029435;28;20547;-63
2021/01/10 15:18:41;;;;;;;34.13;18.20;;;3.80;99.90;;;;;;5024365;28;20173;-64
2021/01/10 15:21:07;;;;;;;39.23;17.87;;;3.70;99.90;;;;;;5011245;28;20203;-63
2021/01/10 15:23:33;;;;;;;35.80;18.13;;;3.70;99.90;;;;;;5014768;28;20195;-64
2021/01/10 15:25:59;;;;;;;31.47;16.80;;;3.60;99.90;;;;;;5030898;28;20195;-63
2021/01/10 15:28:25;;;;;;;36.27;18.37;;;3.40;99.90;;;;;;5030681;28;20234;-63
2021/01/10 15:30:51;;;;;;;31.73;16.73;;;3.30;99.90;;;;;;5014866;28;20545;-63
2021/01/10 15:33:17;;;;;;;29.20;16.77;;;3.30;99.90;;;;;;5015368;28;20197;-64
2021/01/10 15:35:44;;;;;;;39.73;18.00;;;3.20;99.90;;;;;;5034278;28;20183;-64
2021/01/10 15:38:11;;;;;;;35.03;17.03;;;3.00;99.90;;;;;;5034260;28;20269;-63
2021/01/10 15:40:38;;;;;;;36.53;18.63;;;2.80;99.90;;;;;;5014678;28;20196;-63
2021/01/10 15:43:04;;;;;;;38.40;17.33;;;2.60;99.90;;;;;;5014697;28;20192;-64
2021/01/10 15:45:29;;;;;;;41.27;17.27;;;2.40;99.90;;;;;;5031960;28;20695;-64
2021/01/10 15:47:55;;;;;;;38.67;20.30;;;2.30;99.90;;;;;;5034049;28;20176;-64
2021/01/10 15:50:21;;;;;;;40.03;20.17;;;2.10;99.90;;;;;;5018247;28;20180;-64
2021/01/10 15:52:46;;;;;;;33.97;18.27;;;2.00;99.90;;;;;;5014270;28;20283;-64
2021/01/10 15:55:12;;;;;;;37.57;18.13;;;1.90;99.90;;;;;;5028472;28;20191;-64
2021/01/10 15:57:38;;;;;;;40.13;18.77;;;1.80;99.90;;;;;;5033555;28;20178;-64
2021/01/10 16:00:05;;;;;;;41.63;20.10;;;1.70;99.90;;;;;;5021204;28;20199;-64
2021/01/10 16:02:31;;;;;;;41.17;18.47;;;1.60;99.90;;;;;;5013943;28;20206;-64
2021/01/10 16:04:57;;;;;;;42.53;21.90;;;1.50;99.90;;;;;;5025367;28;20599;-63
2021/01/10 16:07:22;;;;;;;44.40;21.23;;;1.40;99.90;;;;;;5033584;28;20250;-63
2021/01/10 16:09:48;;;;;;;44.50;24.97;;;1.30;99.90;;;;;;5030161;28;20202;-63
2021/01/10 16:12:14;;;;;;;48.50;23.20;;;1.30;99.90;;;;;;5034281;28;20175;-63
2021/01/10 16:14:39;;;;;;;50.07;23.33;;;1.30;99.90;;;;;;5022234;28;20180;-63
2021/01/10 16:17:05;;;;;;;47.97;23.70;;;1.20;99.90;;;;;;5013727;28;20838;-63
2021/01/10 16:19:30;;;;;;;53.33;23.77;;;1.20;99.90;;;;;;5022792;28;20176;-63
2021/01/10 16:21:56;;;;;;;52.07;25.47;;;1.20;99.90;;;;;;5033734;28;20205;-63
2021/01/10 16:24:22;;;;;;;48.83;25.53;;;1.20;99.90;;;;;;5025627;28;20200;-63
2021/01/10 16:26:47;;;;;;;56.57;28.03;;;1.20;99.90;;;;;;5013755;28;20173;-63
2021/01/10 16:29:13;;;;;;;52.93;26.70;;;1.10;99.90;;;;;;5019424;28;20237;-63
2021/01/10 16:31:44;;;;;;;64.70;33.03;;;1.10;99.90;;;;;;5033495;28;20572;-63
2021/01/10 16:34:10;;;;;;;68.47;33.97;;;1.10;99.90;;;;;;5028449;28;20227;-63
2021/01/10 16:36:50;;;;;;;75.27;34.70;;;1.10;99.90;;;;;;5013761;28;20183;-63
2021/01/10 16:39:17;;;;;;;87.90;38.57;;;1.10;99.90;;;;;;5016628;28;20594;-64
2021/01/10 16:41:47;;;;;;;67.17;31.73;;;1.00;99.90;;;;;;5016184;28;20199;-63
2021/01/10 16:44:15;;;;;;;53.73;28.00;;;1.00;99.90;;;;;;5033366;28;20195;-64
2021/01/10 16:46:42;;;;;;;69.17;31.77;;;1.10;99.90;;;;;;5028738;28;20656;-63
2021/01/10 16:49:09;;;;;;;64.90;30.93;;;1.20;99.90;;;;;;5013381;28;20172;-63
2021/01/10 16:51:34;;;;;;;56.40;27.80;;;1.20;99.90;;;;;;5015579;28;20212;-63
2021/01/10 16:54:04;;;;;;;59.50;26.77;;;1.10;99.90;;;;;;5033439;28;20774;-64
2021/01/10 16:56:30;;;;;;;73.17;29.27;;;1.00;99.90;;;;;;5031732;28;20241;-63
2021/01/10 16:58:56;;;;;;;54.30;26.90;;;1.00;99.90;;;;;;5013149;28;20208;-64
2021/01/10 17:01:22;;;;;;;51.17;26.13;;;1.00;99.90;;;;;;5012914;28;20204;-63
2021/01/10 17:03:49;;;;;;;57.87;25.83;;;0.90;99.90;;;;;;5032613;28;20202;-64
2021/01/10 17:06:22;;;;;;;61.33;26.17;;;0.90;99.90;;;;;;5035213;28;20164;-66
2021/01/10 17:08:47;;;;;;;54.00;24.70;;;0.80;99.90;;;;;;5013903;28;20645;-63
2021/01/10 17:11:13;;;;;;;56.93;24.43;;;0.70;99.90;;;;;;5013071;28;20180;-64
2021/01/10 17:13:38;;;;;;;52.07;24.67;;;0.60;99.90;;;;;;5029855;28;20212;-63
2021/01/10 17:16:04;;;;;;;50.77;22.73;;;0.50;99.90;;;;;;5032837;28;20203;-63
2021/01/10 17:18:32;;;;;;;59.17;25.33;;;0.40;99.90;;;;;;5016343;28;20177;-64
2021/01/10 17:20:57;;;;;;;57.17;23.93;;;0.30;99.90;;;;;;5012791;28;20230;-63
2021/01/10 17:23:23;;;;;;;56.50;25.90;;;0.20;99.90;;;;;;5026333;28;20199;-63
2021/01/10 17:25:48;;;;;;;56.27;25.30;;;0.10;99.90;;;;;;5032543;28;20233;-62
2021/01/10 17:28:14;;;;;;;46.03;24.67;;;0.10;99.90;;;;;;5019739;28;20179;-64
2021/01/10 17:30:39;;;;;;;58.63;29.03;;;0.00;99.90;;;;;;5012970;28;20727;-64
2021/01/10 17:33:05;;;;;;;63.17;26.30;;;-0.10;99.90;;;;;;5022952;28;20200;-63
2021/01/10 17:35:31;;;;;;;62.37;30.23;;;-0.20;99.90;;;;;;5031924;28;20188;-63
2021/01/10 17:37:56;;;;;;;71.90;29.20;;;-0.20;99.90;;;;;;5023041;28;20180;-63
2021/01/10 17:40:22;;;;;;;69.63;30.77;;;-0.20;99.90;;;;;;5012768;28;20669;-64
2021/01/10 17:42:52;;;;;;;73.07;31.93;;;-0.20;99.90;;;;;;5019397;28;20274;-64
2021/01/10 17:45:18;;;;;;;74.30;31.23;;;-0.20;99.90;;;;;;5032094;28;20176;-64
2021/01/10 17:47:43;;;;;;;73.67;30.93;;;-0.20;99.90;;;;;;5025628;28;20556;-64
2021/01/10 17:50:12;;;;;;;68.33;31.37;;;-0.10;99.90;;;;;;5011982;28;20179;-64
2021/01/10 17:52:37;;;;;;;60.23;28.87;;;-0.10;99.90;;;;;;5016689;28;20187;-64
2021/01/10 17:55:04;;;;;;;63.40;28.97;;;-0.10;99.90;;;;;;5031983;28;20570;-63
2021/01/10 17:57:30;;;;;;;56.00;25.57;;;0.00;99.90;;;;;;5026846;28;20204;-64
2021/01/10 17:59:57;;;;;;;54.13;23.33;;;0.10;99.90;;;;;;5012214;28;20203;-64
2021/01/10 18:02:25;;;;;;;50.50;24.40;;;0.10;99.90;;;;;;5013139;28;20644;-64
2021/01/10 18:04:51;;;;;;;51.27;20.93;;;0.30;99.90;;;;;;5012581;28;20175;-64
2021/01/10 18:07:16;;;;;;;36.37;19.43;;;0.40;99.90;;;;;;5016521;28;20167;-64
2021/01/10 18:09:42;;;;;;;44.07;20.23;;;0.40;99.90;;;;;;5031927;28;20609;-64
2021/01/10 18:12:08;;;;;;;46.00;22.50;;;0.50;99.90;;;;;;5028221;28;20230;-64
2021/01/10 18:14:33;;;;;;;39.07;21.87;;;0.60;99.90;;;;;;5011874;28;20204;-64
2021/01/10 18:16:59;;;;;;;40.87;21.13;;;0.70;99.90;;;;;;5013794;28;20187;-64
2021/01/10 18:19:25;;;;;;;46.87;23.63;;;0.70;99.90;;;;;;5031549;28;20175;-64
2021/01/10 18:21:51;;;;;;;50.63;24.73;;;0.80;99.90;;;;;;5031361;28;20561;-64
2021/01/10 18:24:19;;;;;;;57.20;28.47;;;0.80;99.90;;;;;;5012015;28;20202;-64
2021/01/10 18:26:52;;;;;;;54.93;26.07;;;0.90;99.90;;;;;;5019636;28;20198;-64
2021/01/10 18:29:18;;;;;;;57.47;26.17;;;0.90;99.90;;;;;;5031532;28;20172;-64
2021/01/10 18:31:44;;;;;;;46.70;23.17;;;0.90;99.90;;;;;;5023892;28;20184;-64
2021/01/10 18:34:09;;;;;;;42.23;22.63;;;0.90;99.90;;;;;;5011781;28;20610;-64
2021/01/10 18:36:35;;;;;;;49.07;24.47;;;0.90;99.90;;;;;;5017153;28;20168;-64
2021/01/10 18:39:01;;;;;;;49.07;24.40;;;0.90;99.90;;;;;;5031303;28;20254;-63
2021/01/10 18:41:27;;;;;;;54.70;25.77;;;0.80;99.90;;;;;;5027433;28;20295;-64
2021/01/10 18:43:53;;;;;;;52.07;25.60;;;0.70;99.90;;;;;;5012867;28;20270;-64
2021/01/10 18:46:27;;;;;;;53.53;27.90;;;0.70;99.90;;;;;;5013280;28;20164;-63
2021/01/10 18:48:53;;;;;;;53.87;27.07;;;0.50;99.90;;;;;;5031108;28;20163;-63
2021/01/10 18:51:31;;;;;;;52.00;24.83;;;0.40;99.90;;;;;;5030048;28;20172;-63
2021/01/10 18:53:57;;;;;;;52.47;26.30;;;0.40;99.90;;;;;;5011631;28;20207;-63
2021/01/10 18:56:23;;;;;;;50.47;25.87;;;0.30;99.90;;;;;;5012451;28;20188;-64
2021/01/10 18:58:49;;;;;;;51.40;27.20;;;0.10;99.90;;;;;;5031179;28;20209;-64
2021/01/10 19:01:25;;;;;;;58.20;27.03;;;0.10;99.90;;;;;;5031439;28;20235;-64
2021/01/10 19:03:51;;;;;;;58.67;25.83;;;0.10;99.90;;;;;;4995806;28;20682;-64
2021/01/10 19:06:25;;;;;;;46.87;23.90;;;0.00;99.90;;;;;;4995873;28;20181;-67
2021/01/10 19:08:52;;;;;;;44.23;23.17;;;-0.10;99.90;;;;;;5035042;28;20187;-64
2021/01/10 19:11:21;;;;;;;46.57;21.27;;;-0.20;99.90;;;;;;5035258;28;20278;-63
2021/01/10 19:13:47;;;;;;;51.97;22.13;;;-0.30;99.90;;;;;;5016326;28;20204;-64
2021/01/10 19:16:13;;;;;;;52.30;23.10;;;-0.20;99.90;;;;;;5016518;28;20180;-66
2021/01/10 19:18:41;;;;;;;48.80;24.07;;;-0.30;99.90;;;;;;5033684;28;20190;-64
2021/01/10 19:21:08;;;;;;;49.67;22.67;;;-0.30;99.90;;;;;;5035008;28;20261;-64
2021/01/10 19:23:33;;;;;;;42.97;20.20;;;-0.30;99.90;;;;;;5018939;28;20755;-64
2021/01/10 19:25:59;;;;;;;48.50;22.90;;;-0.30;99.90;;;;;;5015098;28;20177;-64
2021/01/10 19:28:26;;;;;;;41.07;20.27;;;-0.30;99.90;;;;;;5028222;28;20175;-64
2021/01/10 19:30:52;;;;;;;45.07;19.33;;;-0.30;99.90;;;;;;5034992;28;20190;-65
2021/01/10 19:33:17;;;;;;;46.53;23.03;;;-0.30;99.90;;;;;;5022760;28;20208;-64
2021/01/10 19:35:43;;;;;;;63.67;27.40;;;-0.30;99.90;;;;;;5014789;28;20184;-64
2021/01/10 19:38:09;;;;;;;54.90;29.33;;;-0.30;99.90;;;;;;5024563;28;20175;-64
2021/01/10 19:40:36;;;;;;;56.87;25.07;;;-0.20;99.90;;;;;;5034476;28;20206;-64
2021/01/10 19:43:02;;;;;;;43.20;21.30;;;-0.20;99.90;;;;;;5025937;28;20207;-64
2021/01/10 19:45:31;;;;;;;44.77;19.37;;;0.00;99.90;;;;;;5014556;28;20180;-63
2021/01/10 19:47:57;;;;;;;43.57;20.60;;;0.10;99.90;;;;;;5003761;28;20171;-63
2021/01/10 19:50:23;;;;;;;35.80;20.43;;;0.20;99.90;;;;;;5034441;28;20179;-64
2021/01/10 19:52:48;;;;;;;38.37;20.03;;;0.20;99.90;;;;;;5028958;28;20445;-64
2021/01/10 19:55:14;;;;;;;34.27;18.77;;;0.30;99.90;;;;;;5014541;28;20188;-64
2021/01/10 19:57:41;;;;;;;40.93;17.87;;;0.40;99.90;;;;;;5017144;28;20179;-64
2021/01/10 20:00:09;;;;;;;40.03;20.07;;;0.40;99.90;;;;;;5033058;28;20255;-64
2021/01/10 20:02:44;;;;;;;39.83;18.17;;;0.40;99.90;;;;;;5031766;28;20192;-64
2021/01/10 20:05:10;;;;;;;45.50;18.33;;;0.40;99.90;;;;;;5014843;28;20193;-65
2021/01/10 20:07:37;;;;;;;35.70;16.37;;;0.40;99.90;;;;;;5027181;28;20184;-65
2021/01/10 20:10:07;;;;;;;40.93;17.27;;;0.40;99.90;;;;;;5034180;28;20274;-64
2021/01/10 20:12:34;;;;;;;43.53;18.53;;;0.40;99.90;;;;;;5020619;28;20236;-64
2021/01/10 20:15:01;;;;;;;38.17;16.10;;;0.40;99.90;;;;;;5014380;28;20572;-64
2021/01/10 20:17:27;;;;;;;45.60;18.20;;;0.50;99.90;;;;;;5024862;28;20262;-64
2021/01/10 20:19:53;;;;;;;33.67;16.27;;;0.50;99.90;;;;;;5032863;28;20270;-64
2021/01/10 20:22:18;;;;;;;34.27;16.77;;;0.50;99.90;;;;;;5024339;28;20230;-64
2021/01/10 20:24:44;;;;;;;37.40;17.70;;;0.60;99.90;;;;;;5014096;28;20184;-64
2021/01/10 20:27:12;;;;;;;36.23;18.17;;;0.70;99.90;;;;;;5021032;28;20193;-65
2021/01/10 20:29:38;;;;;;;42.13;19.83;;;0.80;99.90;;;;;;5033913;28;20636;-64
2021/01/10 20:32:06;;;;;;;40.77;19.10;;;0.80;99.90;;;;;;5027693;28;20184;-64
2021/01/10 20:34:32;;;;;;;37.83;18.03;;;0.90;99.90;;;;;;5013807;28;20561;-64
2021/01/10 20:36:58;;;;;;;36.50;18.23;;;1.00;99.90;;;;;;5017824;28;20184;-65
2021/01/10 20:39:28;;;;;;;39.93;19.30;;;1.00;99.90;;;;;;5015748;28;20664;-64
2021/01/10 20:41:54;;;;;;;36.83;19.63;;;1.10;99.90;;;;;;5021263;28;20219;-65
2021/01/10 20:44:20;;;;;;;41.00;19.77;;;1.20;99.90;;;;;;5013716;28;20241;-65
2021/01/10 20:46:45;;;;;;;41.63;19.53;;;1.20;99.90;;;;;;5023803;28;20179;-64
2021/01/10 20:49:11;;;;;;;30.30;14.83;;;1.30;99.90;;;;;;5033378;28;20717;-64
2021/01/10 20:51:38;;;;;;;36.57;15.57;;;1.30;99.90;;;;;;5024868;28;20626;-65
2021/01/10 20:54:05;;;;;;;35.43;15.23;;;1.30;99.90;;;;;;5013618;28;20199;-66
2021/01/10 20:56:32;;;;;;;38.27;15.70;;;1.40;99.90;;;;;;5020220;28;20187;-67
2021/01/10 20:58:58;;;;;;;43.60;17.50;;;1.50;99.90;;;;;;5033145;28;20598;-66
2021/01/10 21:01:24;;;;;;;43.47;21.27;;;1.50;99.90;;;;;;5031000;28;20245;-66
2021/01/10 21:03:57;;;;;;;37.43;17.80;;;1.50;99.90;;;;;;5013250;28;20199;-66
2021/01/10 21:06:27;;;;;;;38.53;17.70;;;1.50;99.90;;;;;;5017617;28;20263;-66
2021/01/10 21:08:54;;;;;;;33.60;17.90;;;1.50;99.90;;;;;;5033648;28;20187;-65
2021/01/10 21:11:24;;;;;;;33.97;16.93;;;1.60;99.90;;;;;;5029348;28;20180;-66
2021/01/10 21:13:49;;;;;;;34.87;15.70;;;1.60;99.90;;;;;;5013028;28;20199;-66
2021/01/10 21:16:38;;;;;;;40.97;17.00;;;1.60;99.90;;;;;;4997450;28;20206;-66
2021/01/10 21:19:07;;;;;;;35.50;16.80;;;1.50;99.90;;;;;;5032673;28;20187;-65
2021/01/10 21:21:38;;;;;;;29.17;12.97;;;1.50;99.90;;;;;;5028413;28;20708;-66
2021/01/10 21:24:05;;;;;;;35.63;16.90;;;1.50;99.90;;;;;;5012777;28;20192;-66
2021/01/10 21:26:31;;;;;;;32.10;15.40;;;1.50;99.90;;;;;;5015158;28;20177;-65
2021/01/10 21:28:57;;;;;;;31.90;15.87;;;1.60;99.90;;;;;;5032438;28;20179;-66
2021/01/10 21:31:25;;;;;;;39.63;18.63;;;1.60;99.90;;;;;;5030869;28;20258;-67
2021/01/10 21:33:50;;;;;;;38.70;18.37;;;1.70;99.90;;;;;;5012791;28;20298;-66
2021/01/10 21:36:32;;;;;;;39.40;17.43;;;1.70;99.90;;;;;;5012884;28;20255;-66
2021/01/10 21:38:59;;;;;;;37.37;17.47;;;1.70;99.90;;;;;;5032376;28;20645;-66
2021/01/10 21:41:26;;;;;;;40.67;17.50;;;1.70;99.90;;;;;;5032159;28;20203;-66
2021/01/10 21:43:56;;;;;;;32.50;17.03;;;1.70;99.90;;;;;;4993095;28;20679;-66
2021/01/10 21:46:22;;;;;;;35.10;18.00;;;1.70;99.90;;;;;;4992843;28;20534;-66
2021/01/10 21:48:47;;;;;;;27.93;15.20;;;1.70;99.90;;;;;;5030757;28;20190;-66
2021/01/10 21:51:14;;;;;;;38.30;20.07;;;1.70;99.90;;;;;;5032497;28;20184;-65
2021/01/10 21:53:41;;;;;;;30.63;16.80;;;1.70;99.90;;;;;;5014521;28;20552;-66
2021/01/10 21:56:08;;;;;;;32.53;15.93;;;1.60;99.90;;;;;;5012453;28;20207;-66
2021/01/10 21:58:35;;;;;;;33.30;16.03;;;1.60;99.90;;;;;;5027424;28;20320;-66
2021/01/10 22:01:02;;;;;;;32.67;15.80;;;1.60;99.90;;;;;;5031952;28;20615;-66
2021/01/10 22:03:27;;;;;;;35.60;15.67;;;1.50;99.90;;;;;;5017976;28;20200;-66
2021/01/10 22:05:53;;;;;;;29.13;15.53;;;1.40;99.90;;;;;;5017083;28;20659;-66
2021/01/10 22:08:19;;;;;;;28.07;13.47;;;1.30;99.90;;;;;;5031821;28;20510;-66
2021/01/10 22:10:44;;;;;;;31.30;14.17;;;1.20;99.90;;;;;;5028629;28;20194;-66
2021/01/10 22:13:10;;;;;;;24.13;13.00;;;1.20;99.90;;;;;;5012133;28;20211;-66
2021/01/10 22:15:35;;;;;;;30.10;15.00;;;1.10;99.90;;;;;;5012753;28;20187;-66
2021/01/10 22:18:01;;;;;;;27.33;14.90;;;1.00;99.90;;;;;;5031635;28;20183;-66
2021/01/10 22:20:26;;;;;;;32.67;14.87;;;1.00;99.90;;;;;;5031667;28;20294;-66
2021/01/10 22:22:52;;;;;;;31.57;15.10;;;0.90;99.90;;;;;;5030179;28;20238;-66
2021/01/10 22:25:18;;;;;;;22.30;13.17;;;0.90;99.90;;;;;;5013542;28;20172;-66
2021/01/10 22:27:43;;;;;;;27.33;15.93;;;0.90;99.90;;;;;;5011467;28;20595;-66
2021/01/10 22:30:09;;;;;;;28.50;15.07;;;0.90;99.90;;;;;;5027949;28;20633;-66
2021/01/10 22:32:39;;;;;;;28.10;15.33;;;0.90;99.90;;;;;;5031526;28;20199;-66
2021/01/10 22:35:05;;;;;;;34.63;15.63;;;0.90;99.90;;;;;;5016569;28;20207;-66
2021/01/10 22:37:31;;;;;;;30.07;15.07;;;0.90;99.90;;;;;;5011387;28;20176;-66
2021/01/10 22:39:56;;;;;;;26.60;14.53;;;1.00;99.90;;;;;;5007158;28;20175;-65
2021/01/10 22:42:22;;;;;;;27.73;16.57;;;1.00;99.90;;;;;;5031444;28;20238;-66
2021/01/10 22:44:47;;;;;;;32.53;16.23;;;1.00;99.90;;;;;;5030061;28;20179;-66
2021/01/10 22:47:13;;;;;;;30.97;16.33;;;1.10;99.90;;;;;;5031266;28;20627;-66
2021/01/10 22:49:38;;;;;;;34.43;17.50;;;1.10;99.90;;;;;;5021636;28;20650;-66
2021/01/10 22:52:04;;;;;;;28.60;16.83;;;1.20;99.90;;;;;;5011773;28;20233;-66
2021/01/10 22:54:30;;;;;;;27.10;15.10;;;1.20;99.90;;;;;;5018477;28;20210;-66
2021/01/10 22:56:56;;;;;;;26.97;14.67;;;1.30;99.90;;;;;;5031703;28;20592;-66
2021/01/10 22:59:22;;;;;;;26.63;14.90;;;1.40;99.90;;;;;;5025873;28;20175;-66
2021/01/10 23:01:48;;;;;;;22.07;13.43;;;1.40;99.90;;;;;;5011432;28;20231;-66
2021/01/10 23:04:13;;;;;;;24.93;14.63;;;1.40;99.90;;;;;;5015317;28;20199;-67
2021/01/10 23:06:39;;;;;;;24.50;13.27;;;1.50;99.90;;;;;;5030656;28;20699;-63
2021/01/10 23:09:05;;;;;;;26.10;12.93;;;1.50;99.90;;;;;;5019593;28;20239;-64
2021/01/10 23:11:30;;;;;;;28.90;15.33;;;1.60;99.90;;;;;;5011408;28;20713;-66
2021/01/10 23:13:56;;;;;;;24.70;13.40;;;1.50;99.90;;;;;;5019479;28;20217;-67
2021/01/10 23:16:21;;;;;;;32.40;15.43;;;1.50;99.90;;;;;;5031252;28;20210;-67